Terminal Aerodrome Forecast
Issued by NWS

Home | Current Version | Previous Version | Text Only | Print | Product List | Glossary On
Versions: 1 2 3 4 5 6 7 8 9 10 11 12 13
955
FTUS44 KMAF 010520
TAFFST
TAF
KFST 010520Z 0106/0206 15011KT P6SM SCT050 OVC200
     FM011500 02008KT P6SM OVC035
      TEMPO 0115/0119 VRB15G25KT 3SM TSRA BR BKN015 OVC040CB
      AMD NOT SKED=

USA.gov is the U.S. government's official web portal to all federal, state and local government web resources and services.